createdAt,value
2023-03-14T00:07:30.471Z,2.30
2023-03-14T00:22:30.561Z,2.40
2023-03-14T00:27:30.453Z,2.40
2023-03-14T00:32:30.493Z,2.40
2023-03-14T00:37:30.480Z,1.90
2023-03-14T00:42:30.452Z,1.90
2023-03-14T00:47:30.455Z,1.90
2023-03-14T01:02:30.531Z,1.70
2023-03-14T01:07:30.496Z,2.00
2023-03-14T01:12:30.518Z,2.00
2023-03-14T01:17:30.486Z,2.00
2023-03-14T01:32:30.523Z,2.40
2023-03-14T01:37:30.493Z,1.80
2023-03-14T01:47:30.494Z,1.80
2023-03-14T01:52:30.517Z,1.90
2023-03-14T01:57:30.519Z,1.90
2023-03-14T02:07:30.653Z,1.50
2023-03-14T02:12:30.532Z,1.50
2023-03-14T02:17:30.498Z,1.50
2023-03-14T02:22:30.532Z,1.70
2023-03-14T02:27:30.496Z,1.70
2023-03-14T02:32:30.566Z,1.70
2023-03-14T02:57:30.511Z,1.40
2023-03-14T03:02:30.486Z,1.40
2023-03-14T03:07:30.534Z,1.50
2023-03-14T03:27:30.523Z,1.20
2023-03-14T03:32:30.602Z,1.20
2023-03-14T03:37:30.558Z,1.60
2023-03-14T03:42:30.539Z,1.60
2023-03-14T03:47:30.508Z,1.60
2023-03-14T03:52:30.515Z,2.10
2023-03-14T04:02:30.643Z,2.10
2023-03-14T04:07:30.540Z,1.70
2023-03-14T04:12:30.547Z,1.70
2023-03-14T04:22:30.875Z,1.30
2023-03-14T05:02:30.646Z,1.20
2023-03-14T05:07:30.543Z,1.40
2023-03-14T05:22:30.586Z,1.30
2023-03-14T05:27:30.580Z,1.30
2023-03-14T05:32:30.606Z,1.30
2023-03-14T06:02:30.589Z,1.50
2023-03-14T06:07:30.549Z,1.60
2023-03-14T06:12:30.977Z,1.60
2023-03-14T06:17:30.586Z,1.60
2023-03-14T06:22:30.540Z,1.30
2023-03-14T06:27:30.575Z,1.30
2023-03-14T06:32:30.587Z,1.30
2023-03-14T06:37:30.588Z,1.30
2023-03-14T06:52:30.668Z,1.60
2023-03-14T07:07:30.565Z,2.00
2023-03-14T07:17:30.613Z,2.00
2023-03-14T07:37:30.581Z,2.80
2023-03-14T07:42:30.584Z,2.80
2023-03-14T07:47:30.613Z,2.80
2023-03-14T07:52:30.586Z,1.90
2023-03-14T07:57:30.602Z,1.90
2023-03-14T08:02:30.642Z,1.90
2023-03-14T08:07:30.632Z,1.30
2023-03-14T08:12:30.589Z,1.30
2023-03-14T08:17:30.626Z,1.30
2023-03-14T08:22:30.625Z,0.80
2023-03-14T08:27:30.629Z,0.80
2023-03-14T08:32:30.652Z,0.80
2023-03-14T08:37:30.638Z,0.70
2023-03-14T08:42:30.611Z,0.70
2023-03-14T08:47:30.600Z,0.70
2023-03-14T08:52:30.668Z,1.00
2023-03-14T08:57:30.631Z,1.00
2023-03-14T09:02:30.625Z,1.00
2023-03-14T09:07:30.639Z,1.00
2023-03-14T09:12:30.637Z,1.00
2023-03-14T09:17:30.645Z,1.00
2023-03-14T09:22:30.638Z,0.50
2023-03-14T09:27:30.646Z,0.50
2023-03-14T09:32:30.636Z,0.50
2023-03-14T09:42:30.647Z,0.80
2023-03-14T09:47:30.628Z,0.80
2023-03-14T09:52:30.630Z,0.40
2023-03-14T09:57:30.654Z,0.40
2023-03-14T10:02:30.624Z,0.40
2023-03-14T10:12:30.756Z,0.70
2023-03-14T10:17:30.655Z,0.70
2023-03-14T10:27:30.671Z,0.80
2023-03-14T10:32:30.641Z,0.80
2023-03-14T10:42:30.664Z,0.80
2023-03-14T10:47:30.647Z,0.80
2023-03-14T10:52:40.513Z,1.20
2023-03-14T10:57:30.697Z,1.20
2023-03-14T11:02:30.629Z,1.20
2023-03-14T11:07:30.652Z,1.10
2023-03-14T11:12:30.654Z,1.10
2023-03-14T11:17:30.676Z,1.00
2023-03-14T11:22:30.670Z,1.00
2023-03-14T11:27:30.681Z,1.00
2023-03-14T11:32:30.696Z,1.20
2023-03-14T11:42:30.665Z,1.20
2023-03-14T11:47:30.671Z,2.50
2023-03-14T11:52:30.666Z,2.50
2023-03-14T11:57:30.665Z,2.50
2023-03-14T12:02:30.698Z,1.50
2023-03-14T12:07:30.648Z,1.50
2023-03-14T12:12:30.685Z,1.50
2023-03-14T12:17:30.690Z,2.30
2023-03-14T12:22:30.673Z,2.30
2023-03-14T12:27:30.672Z,2.30
2023-03-14T12:32:30.684Z,1.60
2023-03-14T12:37:30.662Z,1.60
2023-03-14T12:42:44.069Z,1.60
2023-03-14T12:47:30.665Z,1.00
2023-03-14T12:52:30.664Z,1.00
2023-03-14T12:57:30.674Z,1.00
2023-03-14T13:02:30.667Z,1.30
2023-03-14T13:07:30.665Z,1.30
2023-03-14T13:12:30.698Z,1.30
2023-03-14T13:17:36.248Z,1.00
2023-03-14T13:22:30.715Z,1.00
2023-03-14T13:27:30.695Z,1.00
2023-03-14T13:32:30.711Z,1.30
2023-03-14T13:37:30.698Z,1.30
2023-03-14T13:42:30.742Z,1.30
2023-03-14T13:47:30.688Z,1.30
2023-03-14T13:52:30.695Z,1.30
2023-03-14T14:02:30.701Z,1.30
2023-03-14T14:07:30.692Z,1.30
2023-03-14T14:12:30.869Z,1.30
2023-03-14T14:22:30.733Z,1.00
2023-03-14T14:27:30.731Z,1.00
2023-03-14T14:32:30.727Z,1.20
2023-03-14T14:37:32.188Z,1.20
2023-03-14T14:42:30.689Z,1.20
2023-03-14T14:52:30.730Z,1.50
2023-03-14T14:57:30.738Z,1.50
2023-03-14T15:02:30.805Z,0.50
2023-03-14T15:07:30.731Z,0.50
2023-03-14T15:12:30.748Z,0.50
2023-03-14T15:17:30.708Z,1.00
2023-03-14T15:22:30.735Z,1.00
2023-03-14T15:27:30.711Z,1.00
2023-03-14T15:32:30.735Z,1.20
2023-03-14T15:37:30.749Z,1.20
2023-03-14T15:42:30.714Z,1.20
2023-03-14T15:47:30.717Z,1.20
2023-03-14T15:52:30.761Z,1.20
2023-03-14T15:57:30.766Z,1.20
2023-03-14T16:02:30.721Z,1.30
2023-03-14T16:07:32.498Z,1.30
2023-03-14T16:12:30.751Z,1.30
2023-03-14T16:17:30.736Z,1.10
2023-03-14T16:22:30.769Z,1.10
2023-03-14T16:37:30.767Z,1.00
2023-03-14T16:42:30.773Z,1.00
2023-03-14T16:47:30.724Z,1.20
2023-03-14T16:57:30.767Z,1.20
2023-03-14T17:02:30.745Z,1.00
2023-03-14T17:07:30.780Z,1.00
2023-03-14T17:12:30.760Z,1.00
2023-03-14T17:17:30.772Z,1.10
2023-03-14T17:27:30.755Z,1.10
2023-03-14T17:32:30.813Z,1.00
2023-03-14T17:37:30.730Z,1.00
2023-03-14T17:42:30.769Z,1.00
2023-03-14T17:47:30.741Z,1.30
2023-03-14T17:52:30.836Z,1.30
2023-03-14T17:57:30.777Z,1.30
2023-03-14T18:02:30.872Z,1.60
2023-03-14T18:07:30.768Z,1.60
2023-03-14T18:12:30.778Z,1.60
2023-03-14T18:17:31.913Z,1.60
2023-03-14T18:22:31.017Z,1.60
2023-03-14T18:32:30.831Z,1.50
2023-03-14T18:47:30.785Z,1.40
2023-03-14T18:52:30.766Z,1.40
2023-03-14T19:02:30.859Z,1.50
2023-03-14T19:07:30.774Z,1.50
2023-03-14T19:12:30.825Z,1.50
2023-03-14T19:17:30.823Z,1.30
2023-03-14T19:22:30.797Z,1.30
2023-03-14T19:27:30.804Z,1.30
2023-03-14T19:32:30.791Z,1.40
2023-03-14T19:37:30.812Z,1.40
2023-03-14T19:42:30.792Z,1.40
2023-03-14T19:47:30.799Z,1.30
2023-03-14T19:52:30.790Z,1.30
2023-03-14T19:57:30.800Z,1.30
2023-03-14T20:02:30.876Z,1.60
2023-03-14T20:07:30.787Z,1.60
2023-03-14T20:12:30.807Z,1.60
2023-03-14T20:17:30.814Z,2.00
2023-03-14T20:27:30.804Z,2.00
2023-03-14T20:32:30.839Z,2.50
2023-03-14T20:37:30.812Z,2.50
2023-03-14T20:42:31.902Z,2.50
2023-03-14T20:47:30.832Z,3.20
2023-03-14T20:52:30.824Z,3.20
2023-03-14T20:57:30.802Z,3.20
2023-03-14T21:02:30.800Z,1.90
2023-03-14T21:07:30.793Z,1.90
2023-03-14T21:12:30.815Z,1.90
2023-03-14T21:17:30.813Z,1.50
2023-03-14T21:32:30.832Z,2.30
2023-03-14T21:37:30.815Z,2.30
2023-03-14T21:42:30.812Z,2.30
2023-03-14T21:47:30.850Z,2.00
2023-03-14T21:52:30.813Z,2.00
2023-03-14T21:57:30.812Z,2.00
2023-03-14T22:02:30.958Z,1.80
2023-03-14T22:07:30.811Z,1.80
2023-03-14T22:17:30.813Z,1.40
2023-03-14T22:22:30.820Z,1.40
2023-03-14T22:37:30.827Z,1.20
2023-03-14T22:42:30.832Z,1.20
2023-03-14T22:47:30.817Z,1.10
2023-03-14T22:57:30.819Z,1.10
2023-03-14T23:02:30.824Z,1.40
2023-03-14T23:17:30.837Z,1.40
2023-03-14T23:22:30.828Z,1.40
2023-03-14T23:32:30.890Z,2.60
2023-03-14T23:42:30.845Z,2.60
2023-03-14T23:52:30.843Z,1.80
